Time;durP1;ratioP1;P1;durP2;ratioP2;P2;SDS_P1;SDS_P2;PMS_P1;PMS_P2;Temp;Humidity;BMP_temperature;BMP_pressure;BME280_temperature;BME280_humidity;BME280_pressure;Samples;Min_cycle;Max_cycle;Signal;HPM_P1;HPM_P2
2022/03/01 00:00:58;;;;;;;18.80;9.50;;;3.10;99.90;;;;;;4919546;29;20467;-91
2022/03/01 00:03:24;;;;;;;14.00;8.90;;;3.00;99.90;;;;;;4903597;29;20048;-91
2022/03/01 00:05:50;;;;;;;17.17;9.38;;;3.20;99.90;;;;;;4919224;29;20052;-91
2022/03/01 00:08:15;;;;;;;17.65;9.52;;;3.10;99.90;;;;;;4903584;29;20511;-91
2022/03/01 00:10:41;;;;;;;18.58;9.95;;;3.10;99.90;;;;;;4903446;29;20496;-91
2022/03/01 00:13:08;;;;;;;14.77;8.98;;;3.00;99.90;;;;;;4903157;29;20539;-92
2022/03/01 00:15:33;;;;;;;13.02;8.63;;;3.10;99.90;;;;;;4903650;29;20052;-92
2022/03/01 00:17:59;;;;;;;17.60;9.63;;;3.10;99.90;;;;;;4903734;29;20055;-92
2022/03/01 00:20:25;;;;;;;16.02;9.63;;;2.80;99.90;;;;;;4903357;29;20052;-93
2022/03/01 00:22:50;;;;;;;17.38;8.98;;;2.80;99.90;;;;;;4903255;29;20048;-92
2022/03/01 00:25:16;;;;;;;13.63;8.93;;;3.00;99.90;;;;;;4903546;29;20432;-91
2022/03/01 00:27:42;;;;;;;15.23;8.20;;;2.80;99.90;;;;;;4903181;29;20044;-91
2022/03/01 00:30:08;;;;;;;15.85;9.32;;;3.10;99.90;;;;;;4903417;29;20136;-91
2022/03/01 00:32:35;;;;;;;16.45;9.93;;;2.80;99.90;;;;;;4886697;29;20128;-92
2022/03/01 00:35:01;;;;;;;15.25;8.60;;;3.10;99.90;;;;;;4902828;29;20552;-92
2022/03/01 00:37:29;;;;;;;17.67;9.32;;;2.80;99.90;;;;;;4902917;29;20040;-92
2022/03/01 00:39:55;;;;;;;17.73;9.35;;;2.60;99.90;;;;;;4903127;29;20131;-91
2022/03/01 00:42:20;;;;;;;15.27;9.73;;;2.80;99.90;;;;;;4902967;29;20079;-91
2022/03/01 00:44:46;;;;;;;14.60;8.88;;;2.40;99.90;;;;;;4902963;29;20059;-92
2022/03/01 00:47:12;;;;;;;17.40;9.30;;;2.80;99.90;;;;;;4902729;29;20135;-92
2022/03/01 00:49:38;;;;;;;16.73;9.98;;;2.90;99.90;;;;;;4903206;29;20080;-92
2022/03/01 00:52:04;;;;;;;16.48;9.88;;;3.00;99.90;;;;;;4887535;29;20115;-92
2022/03/01 00:54:29;;;;;;;14.75;8.75;;;2.50;99.90;;;;;;4887491;29;20052;-94
2022/03/01 00:56:55;;;;;;;16.52;9.73;;;2.40;99.90;;;;;;4902709;29;20044;-93
2022/03/01 00:59:21;;;;;;;16.63;9.73;;;2.50;99.90;;;;;;4903019;29;20166;-92
2022/03/01 01:01:46;;;;;;;17.05;9.48;;;2.40;99.90;;;;;;4902405;29;20104;-92
2022/03/01 01:04:12;;;;;;;14.85;9.15;;;2.40;99.90;;;;;;4902768;29;20048;-92
2022/03/01 01:06:38;;;;;;;17.77;9.02;;;2.30;99.90;;;;;;4901963;29;20060;-92
2022/03/01 01:09:04;;;;;;;15.45;9.65;;;2.20;99.90;;;;;;4917947;29;20056;-92
2022/03/01 01:11:30;;;;;;;16.42;9.98;;;2.60;99.90;;;;;;4886434;29;20496;-92
2022/03/01 01:13:55;;;;;;;16.20;9.80;;;2.00;99.90;;;;;;4902298;29;20139;-92
2022/03/01 01:16:30;;;;;;;18.55;9.23;;;2.00;99.90;;;;;;4918013;29;20135;-92
2022/03/01 01:18:56;;;;;;;18.20;9.65;;;2.10;99.90;;;;;;4902098;29;20166;-91
2022/03/01 01:21:22;;;;;;;20.15;9.50;;;1.90;99.90;;;;;;4917200;29;20115;-92
2022/03/01 01:23:47;;;;;;;18.00;9.23;;;1.80;99.90;;;;;;4918038;29;20052;-92
2022/03/01 01:26:13;;;;;;;20.92;9.25;;;2.10;99.90;;;;;;4902140;29;20040;-92
2022/03/01 01:28:39;;;;;;;16.73;9.65;;;1.90;99.90;;;;;;4902028;29;20052;-92
2022/03/01 01:31:05;;;;;;;17.45;9.48;;;2.10;99.90;;;;;;4933373;29;20048;-92
2022/03/01 01:33:31;;;;;;;15.38;9.18;;;2.20;99.90;;;;;;4917362;29;20082;-90
2022/03/01 01:35:57;;;;;;;16.50;9.35;;;2.60;99.90;;;;;;4901534;29;20464;-93
2022/03/01 01:38:22;;;;;;;17.00;8.43;;;2.00;99.90;;;;;;4901848;29;20045;-92
2022/03/01 01:40:48;;;;;;;16.67;8.43;;;2.10;99.90;;;;;;4917542;29;20100;-91
2022/03/01 01:43:14;;;;;;;19.20;9.82;;;2.20;99.90;;;;;;4901626;29;20044;-91
2022/03/01 01:45:40;;;;;;;18.17;9.13;;;2.00;99.90;;;;;;4933184;29;20055;-91
2022/03/01 01:48:06;;;;;;;14.93;8.88;;;1.90;99.90;;;;;;4916961;29;20131;-91
2022/03/01 01:50:33;;;;;;;15.50;8.77;;;2.10;99.90;;;;;;4917204;29;20135;-92
2022/03/01 01:52:59;;;;;;;17.02;9.10;;;2.20;99.90;;;;;;4901770;29;20258;-91
2022/03/01 01:55:27;;;;;;;17.55;8.68;;;2.40;99.90;;;;;;4933272;29;20167;-92
2022/03/01 01:57:52;;;;;;;20.25;9.88;;;2.10;99.90;;;;;;4901266;29;20075;-91
2022/03/01 02:00:18;;;;;;;15.05;8.45;;;2.10;99.90;;;;;;4917157;29;20414;-92
2022/03/01 02:03:21;;;;;;;17.52;9.07;;;2.20;99.90;;;;;;4916829;29;20047;-92
2022/03/01 02:05:47;;;;;;;16.10;9.68;;;2.10;99.90;;;;;;4932981;29;20067;-92
2022/03/01 02:08:13;;;;;;;17.50;10.18;;;2.00;99.90;;;;;;4901246;29;20055;-92
2022/03/01 02:10:38;;;;;;;17.52;9.30;;;2.10;99.90;;;;;;4901197;29;20048;-92
2022/03/01 02:13:04;;;;;;;16.90;9.70;;;2.20;99.90;;;;;;4901730;29;20078;-92
2022/03/01 02:15:30;;;;;;;16.38;9.77;;;2.40;99.90;;;;;;4901495;29;20377;-93
2022/03/01 02:17:55;;;;;;;18.35;9.25;;;1.80;99.90;;;;;;4901096;29;20052;-92
2022/03/01 02:20:23;;;;;;;16.15;9.77;;;1.80;99.90;;;;;;4901163;29;20420;-91
2022/03/01 02:22:56;;;;;;;19.52;10.05;;;1.80;99.90;;;;;;4885430;29;20397;-92
2022/03/01 02:25:23;;;;;;;17.77;9.93;;;1.80;99.90;;;;;;4901453;29;20055;-92
2022/03/01 02:27:49;;;;;;;17.52;9.93;;;1.80;99.90;;;;;;4900898;29;20040;-92
2022/03/01 02:30:15;;;;;;;16.70;9.63;;;1.60;99.90;;;;;;4901515;29;20377;-92
2022/03/01 02:33:23;;;;;;;18.38;9.77;;;1.60;99.90;;;;;;4900615;29;20143;-93
2022/03/01 02:35:49;;;;;;;18.63;10.10;;;1.60;99.90;;;;;;4901297;29;20083;-92
2022/03/01 02:38:14;;;;;;;18.08;9.25;;;1.60;99.90;;;;;;4901101;29;20131;-91
2022/03/01 02:40:40;;;;;;;19.80;9.27;;;1.90;99.90;;;;;;4901160;29;20058;-91
2022/03/01 02:43:08;;;;;;;18.33;9.70;;;1.80;99.90;;;;;;4900930;29;20052;-91
2022/03/01 02:45:33;;;;;;;16.25;9.50;;;1.60;99.90;;;;;;4917009;29;20404;-91
2022/03/01 02:47:59;;;;;;;17.20;9.68;;;1.90;99.90;;;;;;4916724;29;20047;-91
2022/03/01 02:50:25;;;;;;;19.17;10.18;;;1.50;99.90;;;;;;4901091;29;20385;-92
2022/03/01 02:52:51;;;;;;;19.95;10.00;;;1.50;99.90;;;;;;4917034;29;20090;-92
2022/03/01 02:55:16;;;;;;;16.95;9.55;;;1.70;99.90;;;;;;4900981;29;20054;-91
2022/03/01 02:57:42;;;;;;;15.23;9.32;;;1.40;99.90;;;;;;4901168;29;20054;-91
2022/03/01 03:00:10;;;;;;;19.20;9.60;;;1.60;99.90;;;;;;4901002;29;20051;-92
2022/03/01 03:02:35;;;;;;;18.55;9.50;;;1.60;99.90;;;;;;4885131;29;20100;-92
2022/03/01 03:05:01;;;;;;;15.73;8.48;;;1.40;99.90;;;;;;4900425;29;20052;-91
2022/03/01 03:07:27;;;;;;;18.38;9.80;;;1.60;99.90;;;;;;4913664;29;20487;-93
2022/03/01 03:09:53;;;;;;;19.90;10.05;;;2.30;99.90;;;;;;4919652;29;20056;-91
2022/03/01 03:12:18;;;;;;;21.38;9.70;;;2.10;99.90;;;;;;4919637;29;20050;-91
2022/03/01 03:14:45;;;;;;;18.70;9.23;;;1.40;99.90;;;;;;4919233;29;20142;-92
2022/03/01 03:20:35;;;;;;;14.27;9.07;;;1.50;99.90;;;;;;4919518;29;20119;-91
2022/03/01 03:23:01;;;;;;;18.98;9.77;;;1.40;99.90;;;;;;4903519;29;20083;-92
2022/03/01 03:25:27;;;;;;;17.48;9.65;;;1.40;99.90;;;;;;4903925;29;20103;-91
2022/03/01 03:27:52;;;;;;;20.70;10.13;;;1.40;99.90;;;;;;4919150;29;20483;-92
2022/03/01 03:30:18;;;;;;;15.95;9.80;;;1.60;99.90;;;;;;4919502;29;20060;-92
2022/03/01 03:33:40;;;;;;;17.02;9.25;;;1.60;99.90;;;;;;4919288;29;20054;-92
2022/03/01 03:36:05;;;;;;;;;;;1.30;99.90;;;;;;4919624;29;20081;-92
2022/03/01 03:38:31;;;;;;;22.40;10.05;;;1.40;99.90;;;;;;4935220;29;20359;-91
2022/03/01 03:40:57;;;;;;;17.98;9.23;;;1.40;99.90;;;;;;4919472;29;20051;-92
2022/03/01 03:43:22;;;;;;;23.95;10.50;;;1.50;99.90;;;;;;4919451;29;20079;-91
2022/03/01 03:45:48;;;;;;;17.92;10.38;;;1.50;99.90;;;;;;4921899;29;20485;-92
2022/03/01 03:48:14;;;;;;;19.25;9.57;;;1.40;99.90;;;;;;4922798;29;20515;-91
2022/03/01 03:50:40;;;;;;;16.60;10.13;;;1.50;99.90;;;;;;4938788;29;20052;-91
2022/03/01 03:53:06;;;;;;;17.15;10.13;;;1.60;99.90;;;;;;4922748;29;20058;-92
2022/03/01 03:55:31;;;;;;;20.60;11.13;;;1.90;99.90;;;;;;4922616;29;20047;-91
2022/03/01 03:57:57;;;;;;;17.90;10.18;;;1.60;99.90;;;;;;4922658;29;20407;-92
2022/03/01 04:00:23;;;;;;;17.48;9.55;;;2.00;99.90;;;;;;4922456;29;20381;-92
2022/03/01 04:06:30;;;;;;;22.08;9.98;;;1.30;99.90;;;;;;4932992;29;20067;-91
2022/03/01 04:08:56;;;;;;;18.50;9.68;;;1.90;99.90;;;;;;4903656;29;20052;-91
2022/03/01 04:11:22;;;;;;;22.33;10.68;;;2.10;99.90;;;;;;4903679;29;20059;-92
2022/03/01 04:13:47;;;;;;;18.17;11.02;;;1.70;99.90;;;;;;4903532;29;20534;-92
2022/03/01 04:16:13;;;;;;;21.35;10.52;;;1.70;99.90;;;;;;4919389;29;20056;-92
2022/03/01 04:18:57;;;;;;;20.67;10.35;;;2.20;99.90;;;;;;4919394;29;20104;-92
2022/03/01 04:21:23;;;;;;;19.17;10.30;;;2.40;99.90;;;;;;4903546;29;20048;-92
2022/03/01 04:23:49;;;;;;;18.67;10.77;;;1.80;99.90;;;;;;4918651;29;20067;-92
2022/03/01 04:26:15;;;;;;;16.85;10.18;;;1.80;99.90;;;;;;4902439;29;20067;-91
2022/03/01 04:28:42;;;;;;;17.95;10.30;;;1.80;99.90;;;;;;4903551;29;20048;-91
2022/03/01 04:31:08;;;;;;;23.95;10.13;;;2.40;99.90;;;;;;4887682;29;20139;-92
2022/03/01 04:34:30;;;;;;;19.38;10.77;;;2.10;99.90;;;;;;4919257;29;20075;-92
2022/03/01 04:36:56;;;;;;;19.50;10.32;;;1.80;99.90;;;;;;4903075;29;20055;-95
2022/03/01 04:39:22;;;;;;;18.60;9.68;;;1.80;99.90;;;;;;4903342;29;20048;-92
2022/03/01 04:41:48;;;;;;;18.27;10.57;;;2.40;99.90;;;;;;4903289;29;20055;-91
2022/03/01 04:44:14;;;;;;;19.52;10.63;;;2.10;99.90;;;;;;4903024;29;20047;-92
2022/03/01 04:46:41;;;;;;;19.95;10.55;;;1.70;99.90;;;;;;4902755;29;20055;-92
2022/03/01 04:49:07;;;;;;;19.33;10.45;;;1.70;99.90;;;;;;4887289;29;20048;-92
2022/03/01 04:51:33;;;;;;;19.75;11.25;;;2.00;99.90;;;;;;4902943;29;20084;-91
2022/03/01 04:53:59;;;;;;;21.30;10.60;;;2.00;99.90;;;;;;4887384;29;20044;-91
2022/03/01 04:56:25;;;;;;;20.55;11.02;;;1.80;99.90;;;;;;4901941;29;20055;-92
2022/03/01 04:58:52;;;;;;;22.00;10.70;;;1.90;99.90;;;;;;4902608;29;20047;-91
2022/03/01 05:01:18;;;;;;;18.80;10.50;;;2.00;99.90;;;;;;4902439;29;20170;-91
2022/03/01 05:03:44;;;;;;;21.45;11.43;;;2.20;99.90;;;;;;4902672;29;20078;-92
2022/03/01 05:06:09;;;;;;;19.08;10.82;;;1.90;99.90;;;;;;4902578;29;20052;-91
2022/03/01 05:08:35;;;;;;;23.33;10.88;;;2.40;99.90;;;;;;4902749;29;20051;-92
2022/03/01 05:11:02;;;;;;;18.70;10.63;;;2.10;99.90;;;;;;4902599;29;20048;-92
2022/03/01 05:13:29;;;;;;;20.30;11.07;;;1.80;99.90;;;;;;4918165;29;20047;-92
2022/03/01 05:15:55;;;;;;;20.35;10.52;;;1.90;99.90;;;;;;4902618;29;20119;-92
2022/03/01 05:18:21;;;;;;;18.73;10.95;;;1.80;99.90;;;;;;4902055;29;20048;-92
2022/03/01 05:20:51;;;;;;;17.73;10.68;;;2.00;99.90;;;;;;4902343;29;20088;-92
2022/03/01 05:23:17;;;;;;;18.35;10.77;;;1.80;99.90;;;;;;4902419;29;20492;-91
2022/03/01 05:25:43;;;;;;;19.50;10.95;;;1.80;99.90;;;;;;4901817;29;20044;-92
2022/03/01 05:28:10;;;;;;;16.67;10.57;;;2.00;99.90;;;;;;4886327;29;20084;-91
2022/03/01 05:30:35;;;;;;;20.52;10.82;;;2.10;99.90;;;;;;4902004;29;20203;-92
2022/03/01 05:33:01;;;;;;;19.13;10.65;;;2.30;99.90;;;;;;4902270;29;20552;-91
2022/03/01 05:35:30;;;;;;;19.63;10.80;;;2.00;99.90;;;;;;4902193;29;20372;-92
2022/03/01 05:37:59;;;;;;;18.67;11.30;;;2.10;99.90;;;;;;4901765;29;20420;-92
2022/03/01 05:40:28;;;;;;;17.75;10.35;;;1.70;99.90;;;;;;4917900;29;20052;-91
2022/03/01 05:42:54;;;;;;;18.75;11.02;;;2.20;99.90;;;;;;4885981;29;20051;-91
2022/03/01 05:45:20;;;;;;;23.50;10.82;;;2.20;99.90;;;;;;4901446;29;20063;-91
2022/03/01 05:47:46;;;;;;;21.27;10.93;;;2.30;99.90;;;;;;4916890;29;20052;-91
2022/03/01 05:50:14;;;;;;;18.30;10.70;;;2.70;99.90;;;;;;4886364;29;20441;-91
2022/03/01 05:52:40;;;;;;;20.80;10.65;;;2.30;99.90;;;;;;4902093;29;20048;-91
2022/03/01 05:55:08;;;;;;;19.75;10.55;;;2.20;99.90;;;;;;4901663;29;20404;-93
2022/03/01 05:57:34;;;;;;;20.00;10.70;;;2.20;99.90;;;;;;4901488;29;20544;-91
2022/03/01 06:00:00;;;;;;;19.95;10.35;;;2.00;99.90;;;;;;4901617;29;20046;-91
2022/03/01 06:02:26;;;;;;;19.38;10.20;;;2.20;99.90;;;;;;4913074;29;20492;-92
2022/03/01 06:04:52;;;;;;;19.10;10.15;;;2.10;99.90;;;;;;4904173;29;20054;-93
2022/03/01 06:07:19;;;;;;;17.50;10.00;;;2.30;99.90;;;;;;4921404;29;20464;-91
2022/03/01 06:09:45;;;;;;;20.15;10.80;;;2.00;99.90;;;;;;4951983;29;20146;-92
2022/03/01 06:12:11;;;;;;;19.88;10.80;;;2.20;99.90;;;;;;4903985;29;20504;-92
2022/03/01 06:14:36;;;;;;;19.35;10.18;;;1.80;99.90;;;;;;4904841;29;20090;-91
2022/03/01 06:17:14;;;;;;;22.52;10.60;;;2.10;99.90;;;;;;4904579;29;20445;-91
2022/03/01 06:19:40;;;;;;;19.02;10.82;;;1.70;99.90;;;;;;4905067;29;20396;-91
2022/03/01 06:22:06;;;;;;;17.92;10.30;;;2.00;99.90;;;;;;4904376;29;20051;-92
2022/03/01 06:24:33;;;;;;;17.33;10.35;;;1.80;99.90;;;;;;4904506;29;20365;-91
2022/03/01 06:26:59;;;;;;;17.33;9.63;;;1.70;99.90;;;;;;4904469;29;20044;-92
2022/03/01 06:29:25;;;;;;;16.73;9.90;;;1.70;99.90;;;;;;4904521;29;20047;-92
2022/03/01 06:32:15;;;;;;;24.80;11.13;;;1.60;99.90;;;;;;4904123;29;20106;-92
2022/03/01 06:34:41;;;;;;;20.65;10.93;;;1.70;99.90;;;;;;4904353;29;20043;-92
2022/03/01 06:37:12;;;;;;;19.80;10.82;;;1.70;99.90;;;;;;4919883;29;20165;-91
2022/03/01 06:39:40;;;;;;;;;;;2.00;99.90;;;;;;4920473;29;20059;-91
2022/03/01 06:42:05;;;;;;;20.38;10.38;;;2.10;99.90;;;;;;4904318;29;19923;-91
2022/03/01 06:44:31;;;;;;;16.42;9.30;;;1.80;99.90;;;;;;4903682;29;20448;-91
2022/03/01 06:57:44;;;;;;;18.10;10.07;;;2.30;99.90;;;;;;4935998;29;20525;-91
2022/03/01 07:00:11;;;;;;;19.33;11.15;;;2.40;99.90;;;;;;4903979;29;20051;-91
2022/03/01 07:02:40;;;;;;;16.90;9.95;;;2.40;99.90;;;;;;4903639;29;20090;-91
2022/03/01 07:05:11;;;;;;;18.33;10.98;;;2.50;99.90;;;;;;4904029;29;20051;-91
2022/03/01 07:07:38;;;;;;;24.88;10.68;;;2.60;99.90;;;;;;4920795;29;20063;-92
2022/03/01 07:10:08;;;;;;;20.02;10.43;;;3.20;99.90;;;;;;4920427;29;20054;-92
2022/03/01 07:12:34;;;;;;;18.98;10.55;;;3.00;99.90;;;;;;4936663;29;20047;-92
2022/03/01 07:15:00;;;;;;;19.65;10.75;;;3.40;99.90;;;;;;4903721;29;20060;-92
2022/03/01 07:17:26;;;;;;;17.35;10.68;;;2.90;99.90;;;;;;4919747;29;20103;-91
2022/03/01 07:19:52;;;;;;;21.55;10.00;;;3.40;99.90;;;;;;4906442;29;20055;-92
2022/03/01 07:22:18;;;;;;;20.05;10.82;;;3.30;99.90;;;;;;4907329;29;20047;-92
2022/03/01 07:24:44;;;;;;;24.50;11.02;;;3.60;99.90;;;;;;4909323;29;20071;-92
2022/03/01 07:27:10;;;;;;;18.48;10.48;;;3.50;99.90;;;;;;4908407;29;20480;-92
2022/03/01 07:29:37;;;;;;;20.40;11.27;;;3.40;99.90;;;;;;4909410;29;20043;-91
2022/03/01 07:32:08;;;;;;;21.15;11.20;;;3.60;99.90;;;;;;4912980;29;20040;-93
2022/03/01 07:34:34;;;;;;;18.02;10.77;;;3.70;99.90;;;;;;4916674;29;20062;-92
2022/03/01 07:37:07;;;;;;;19.27;11.25;;;4.20;99.90;;;;;;4915214;29;20105;-94
2022/03/01 07:39:33;;;;;;;17.65;10.52;;;3.90;99.90;;;;;;4914235;29;20094;-93
2022/03/01 07:41:59;;;;;;;22.65;11.55;;;3.80;99.90;;;;;;4902735;29;20052;-93
2022/03/01 07:44:26;;;;;;;21.42;11.57;;;3.90;99.90;;;;;;4916199;29;20048;-92
2022/03/01 07:46:54;;;;;;;20.67;11.02;;;4.00;99.90;;;;;;4913913;29;20551;-92
2022/03/01 07:49:20;;;;;;;20.90;11.50;;;4.00;99.90;;;;;;4915653;29;20106;-92
2022/03/01 07:51:48;;;;;;;20.73;11.88;;;4.30;99.90;;;;;;4916848;29;20058;-92
2022/03/01 07:54:15;;;;;;;17.52;11.10;;;4.60;99.90;;;;;;4915567;29;20071;-93
2022/03/01 07:56:40;;;;;;;23.20;11.30;;;4.20;99.90;;;;;;4912914;29;20044;-92
2022/03/01 07:59:07;;;;;;;21.73;11.80;;;4.20;99.90;;;;;;4911659;29;20050;-92
2022/03/01 08:01:33;;;;;;;20.30;11.98;;;4.20;99.90;;;;;;4940775;29;20051;-93
2022/03/01 08:07:39;;;;;;;20.88;11.13;;;4.20;99.90;;;;;;4939649;29;20066;-92
2022/03/01 08:10:06;;;;;;;18.95;10.82;;;4.20;99.90;;;;;;4922849;29;20052;-92
2022/03/01 08:12:32;;;;;;;18.17;11.05;;;4.20;99.90;;;;;;4922868;29;20051;-93
2022/03/01 08:14:58;;;;;;;22.00;11.75;;;4.60;99.90;;;;;;4907213;29;20047;-92
2022/03/01 08:17:24;;;;;;;19.50;10.85;;;4.40;99.90;;;;;;4907484;29;20143;-93
2022/03/01 08:19:50;;;;;;;21.58;12.07;;;4.60;99.90;;;;;;4907831;29;20051;-93
2022/03/01 08:22:16;;;;;;;21.52;12.15;;;4.20;99.90;;;;;;4908837;29;20392;-93
2022/03/01 08:24:41;;;;;;;22.80;12.88;;;4.80;99.90;;;;;;4908187;29;20139;-93
2022/03/01 08:27:07;;;;;;;21.35;11.77;;;4.30;99.90;;;;;;4907386;29;20065;-94
2022/03/01 08:29:34;;;;;;;22.48;12.02;;;4.50;99.90;;;;;;4907387;29;20099;-94
2022/03/01 08:32:12;;;;;;;21.33;11.88;;;4.40;99.90;;;;;;4906103;29;20040;-94
2022/03/01 08:34:37;;;;;;;22.27;12.30;;;4.50;99.90;;;;;;4907263;29;20087;-92
2022/03/01 08:37:03;;;;;;;17.90;11.40;;;4.90;99.90;;;;;;4907259;29;20086;-94
2022/03/01 08:39:29;;;;;;;19.92;12.13;;;4.80;99.90;;;;;;4907296;29;20091;-93
2022/03/01 08:41:55;;;;;;;20.90;11.73;;;5.40;99.90;;;;;;4906710;29;20102;-94
2022/03/01 08:44:22;;;;;;;19.02;11.65;;;5.40;99.90;;;;;;4906718;29;20043;-93
2022/03/01 08:46:48;;;;;;;21.10;12.07;;;5.40;99.90;;;;;;4906626;29;20044;-93
2022/03/01 08:52:58;;;;;;;19.77;12.27;;;5.40;99.90;;;;;;4939274;29;20189;-94
2022/03/01 08:55:24;;;;;;;22.20;12.20;;;5.60;99.90;;;;;;4922851;29;20064;-92
2022/03/01 08:57:50;;;;;;;23.13;12.65;;;6.20;99.90;;;;;;4907030;29;20047;-94
2022/03/01 09:00:17;;;;;;;20.42;11.88;;;5.90;99.90;;;;;;4907983;29;20044;-93
2022/03/01 09:02:43;;;;;;;20.95;12.60;;;6.00;99.90;;;;;;4906772;29;20048;-93
2022/03/01 09:05:09;;;;;;;22.17;12.73;;;6.10;99.90;;;;;;4906262;29;20460;-94
2022/03/01 09:07:37;;;;;;;20.52;12.80;;;6.10;99.90;;;;;;4905952;29;20059;-93
2022/03/01 09:10:04;;;;;;;21.48;13.10;;;6.10;99.90;;;;;;4906735;29;20052;-93
2022/03/01 09:12:30;;;;;;;20.05;12.63;;;6.20;99.90;;;;;;4906555;29;20161;-93
2022/03/01 09:14:56;;;;;;;20.45;12.60;;;6.70;99.90;;;;;;4922219;29;20047;-93
2022/03/01 09:21:30;;;;;;;20.50;12.33;;;6.60;99.90;;;;;;4938913;29;20403;-94
2022/03/01 09:23:56;;;;;;;19.08;12.10;;;6.90;99.90;;;;;;4921604;29;20299;-92
2022/03/01 09:26:22;;;;;;;22.40;12.38;;;7.00;99.90;;;;;;4922627;29;20053;-93
2022/03/01 09:28:48;;;;;;;22.95;12.10;;;7.20;99.90;;;;;;4905497;29;20063;-94
2022/03/01 09:31:14;;;;;;;20.55;12.23;;;7.40;99.90;;;;;;4906302;29;20048;-92
2022/03/01 09:33:42;;;;;;;19.73;12.85;;;7.30;99.90;;;;;;4906141;29;20138;-93
2022/03/01 09:36:17;;;;;;;23.30;13.60;;;7.40;99.90;;;;;;4905989;29;20106;-93
2022/03/01 09:38:45;;;;;;;24.10;12.02;;;7.80;99.90;;;;;;4906082;29;20138;-93
2022/03/01 09:41:13;;;;;;;20.42;12.40;;;8.30;99.90;;;;;;4906566;29;20090;-93
2022/03/01 09:43:40;;;;;;;18.33;12.45;;;8.50;99.90;;;;;;4922529;29;20428;-93
2022/03/01 09:46:07;;;;;;;18.70;12.00;;;8.40;99.90;;;;;;4905678;29;20047;-93
2022/03/01 09:52:15;;;;;;;17.83;11.77;;;8.80;98.90;;;;;;4938344;29;20051;-94
2022/03/01 09:54:41;;;;;;;20.08;11.93;;;8.90;99.60;;;;;;4905348;29;20138;-94
2022/03/01 09:57:07;;;;;;;20.20;12.82;;;8.30;99.70;;;;;;4937637;29;20075;-93
2022/03/01 09:59:33;;;;;;;23.00;12.77;;;8.10;99.90;;;;;;4905361;29;20547;-94
2022/03/01 10:01:59;;;;;;;20.10;11.45;;;8.00;99.90;;;;;;4905205;29;20054;-94
2022/03/01 10:08:13;;;;;;;19.17;12.37;;;8.00;99.90;;;;;;4939056;29;20109;-95
2022/03/01 10:10:47;;;;;;;18.25;11.52;;;8.10;99.90;;;;;;4921552;29;20114;-94
2022/03/01 10:13:23;;;;;;;21.30;12.45;;;8.50;99.70;;;;;;4915516;28;20032;-93
2022/03/01 10:16:10;;;;;;;20.10;11.88;;;9.10;98.90;;;;;;4928819;29;20036;-93
2022/03/01 10:22:21;;;;;;;20.77;12.45;;;11.00;92.20;;;;;;4938168;29;20070;-93
2022/03/01 10:24:48;;;;;;;17.40;11.77;;;12.50;82.30;;;;;;4905765;29;20044;-93
2022/03/01 10:27:14;;;;;;;18.42;12.73;;;13.60;76.00;;;;;;4904782;29;20047;-92
2022/03/01 10:29:47;;;;;;;19.40;12.40;;;14.60;69.40;;;;;;4905420;29;20135;-93
2022/03/01 10:32:13;;;;;;;17.88;11.90;;;15.30;63.40;;;;;;4904637;29;20057;-94
2022/03/01 10:34:39;;;;;;;17.70;12.07;;;15.30;62.00;;;;;;4905208;29;20469;-93
2022/03/01 10:37:05;;;;;;;17.15;12.63;;;15.00;61.10;;;;;;4921137;29;20090;-94
2022/03/01 10:39:33;;;;;;;21.65;12.88;;;14.40;63.00;;;;;;4905135;29;20083;-93
2022/03/01 10:42:03;;;;;;;17.85;12.60;;;14.20;63.10;;;;;;4906039;29;20051;-94
2022/03/01 10:44:30;;;;;;;17.25;11.80;;;14.60;62.40;;;;;;4904941;29;20169;-94
2022/03/01 10:47:01;;;;;;;19.38;12.65;;;15.30;61.60;;;;;;4921183;29;20047;-95
2022/03/01 10:52:41;;;;;;;18.33;11.60;;;15.70;54.10;;;;;;4953114;29;19930;-95
2022/03/01 10:55:32;;;;;;;19.30;13.05;;;15.00;59.20;;;;;;4904381;29;20135;-94
2022/03/01 10:58:04;;;;;;;15.88;11.32;;;14.70;59.90;;;;;;4921431;29;20514;-93
2022/03/01 11:00:32;;;;;;;17.13;11.88;;;14.50;57.70;;;;;;4906450;29;20059;-94
2022/03/01 11:06:47;;;;;;;17.05;12.02;;;14.20;54.40;;;;;;4945480;28;20051;-94
2022/03/01 11:09:13;;;;;;;15.93;11.45;;;13.60;57.10;;;;;;4928699;29;20056;-93
2022/03/01 11:11:40;;;;;;;16.17;11.73;;;13.10;59.70;;;;;;4912670;29;20055;-95
2022/03/01 11:14:11;;;;;;;17.88;12.07;;;12.80;60.50;;;;;;4947175;29;20048;-93
2022/03/01 11:16:53;;;;;;;22.25;12.50;;;12.60;61.10;;;;;;4915174;29;20047;-94
2022/03/01 11:23:05;;;;;;;17.05;12.00;;;12.20;61.10;;;;;;4948433;29;20038;-93
2022/03/01 11:25:41;;;;;;;18.52;12.80;;;12.00;63.80;;;;;;4913536;29;20056;-94
2022/03/01 11:28:12;;;;;;;18.45;12.48;;;12.00;63.50;;;;;;4943190;29;20138;-93
2022/03/01 11:30:51;;;;;;;16.98;12.02;;;12.00;64.50;;;;;;4911008;29;20051;-93
2022/03/01 11:34:07;;;;;;;18.52;12.45;;;12.50;65.10;;;;;;4907329;29;20047;-93
2022/03/01 11:36:34;;;;;;;21.45;11.98;;;12.90;61.90;;;;;;4905407;29;20063;-94
2022/03/01 11:39:14;;;;;;;16.33;11.90;;;13.40;59.80;;;;;;4904522;29;20047;-94
2022/03/01 11:41:52;;;;;;;18.75;12.32;;;13.70;58.70;;;;;;4905023;29;20048;-94
2022/03/01 11:44:23;;;;;;;17.13;12.70;;;13.80;56.20;;;;;;4920647;29;20049;-94
2022/03/01 11:46:50;;;;;;;;;;;13.60;59.50;;;;;;4905317;29;20050;-94
2022/03/01 11:49:21;;;;;;;19.23;12.50;;;13.30;54.50;;;;;;4905433;29;20049;-94
2022/03/01 11:51:54;;;;;;;19.00;12.80;;;13.10;59.70;;;;;;4904657;29;20043;-93
2022/03/01 11:54:23;;;;;;;18.98;11.98;;;13.00;59.80;;;;;;4904567;29;20091;-94
2022/03/01 11:56:52;;;;;;;19.73;13.13;;;12.80;63.00;;;;;;4904708;29;20060;-95
2022/03/01 11:59:19;;;;;;;18.77;12.27;;;12.70;61.90;;;;;;4905237;29;20043;-94
2022/03/01 12:01:46;;;;;;;18.63;12.35;;;12.70;60.80;;;;;;4920897;29;20364;-95
2022/03/01 12:07:53;;;;;;;21.95;11.85;;;12.60;60.20;;;;;;4947930;29;20105;-94
2022/03/01 12:10:25;;;;;;;16.95;11.80;;;12.70;61.10;;;;;;4927229;29;20058;-94
2022/03/01 12:12:57;;;;;;;18.70;11.88;;;12.80;57.80;;;;;;4927056;29;20051;-94
2022/03/01 12:15:44;;;;;;;18.40;12.35;;;12.80;56.30;;;;;;4910017;29;20149;-94
2022/03/01 12:18:32;;;;;;;18.92;12.35;;;12.80;56.20;;;;;;4926667;29;20106;-94
2022/03/01 12:21:10;;;;;;;16.55;12.00;;;12.90;56.90;;;;;;4926759;29;20062;-96
2022/03/01 12:23:37;;;;;;;18.95;11.90;;;13.20;55.50;;;;;;4925624;29;20501;-93
2022/03/01 12:26:12;;;;;;;18.30;11.40;;;13.20;55.60;;;;;;4926255;29;20050;-95
2022/03/01 12:28:46;;;;;;;19.55;12.07;;;13.00;56.90;;;;;;4926170;29;20094;-94
2022/03/01 12:31:20;;;;;;;16.25;11.75;;;12.90;56.10;;;;;;4926055;29;20051;-94
2022/03/01 12:33:50;;;;;;;16.15;11.57;;;12.90;58.80;;;;;;4925865;29;20051;-94
2022/03/01 12:36:32;;;;;;;18.98;12.02;;;12.60;58.10;;;;;;4925415;29;20066;-93
2022/03/01 12:39:01;;;;;;;17.27;12.43;;;12.50;58.80;;;;;;4926600;29;20062;-93
2022/03/01 12:41:27;;;;;;;17.05;12.20;;;12.40;61.50;;;;;;4926122;29;20047;-93
2022/03/01 12:43:55;;;;;;;20.05;12.95;;;12.40;62.20;;;;;;4941502;29;20062;-93
2022/03/01 12:46:22;;;;;;;19.40;12.25;;;12.50;61.60;;;;;;4941391;29;20043;-93
2022/03/01 12:48:48;;;;;;;17.08;12.05;;;12.60;60.20;;;;;;4925544;29;20130;-91
2022/03/01 12:51:15;;;;;;;21.08;13.00;;;12.60;60.60;;;;;;4925543;29;20055;-92
2022/03/01 12:54:02;;;;;;;18.35;12.05;;;12.60;60.30;;;;;;4925416;29;20043;-91
2022/03/01 12:56:31;;;;;;;19.45;12.45;;;12.60;60.60;;;;;;4925719;29;20066;-93
2022/03/01 12:59:12;;;;;;;16.08;11.48;;;12.50;61.40;;;;;;4941457;29;20134;-92
2022/03/01 13:01:39;;;;;;;;;;;12.40;62.60;;;;;;4942330;29;20047;-93
2022/03/01 13:07:36;;;;;;;17.13;11.15;;;12.20;62.30;;;;;;4941549;29;20055;-91
2022/03/01 13:10:03;;;;;;;18.60;11.88;;;12.00;63.00;;;;;;4926138;29;20597;-93
2022/03/01 13:12:28;;;;;;;19.63;12.27;;;11.70;61.80;;;;;;4925816;29;20043;-92
2022/03/01 13:14:55;;;;;;;19.48;12.65;;;11.80;64.30;;;;;;4925511;29;20057;-93
2022/03/01 13:17:21;;;;;;;16.85;11.90;;;11.30;64.90;;;;;;4924633;29;20047;-93
2022/03/01 13:19:47;;;;;;;18.55;12.70;;;11.20;64.50;;;;;;4925579;29;20403;-93
2022/03/01 13:22:13;;;;;;;17.13;11.85;;;11.20;64.90;;;;;;4925328;29;20051;-92
2022/03/01 13:24:44;;;;;;;19.75;12.73;;;11.10;66.00;;;;;;4925422;29;20151;-93
2022/03/01 13:27:15;;;;;;;20.52;13.30;;;11.10;67.70;;;;;;4941119;29;20187;-93
2022/03/01 13:29:42;;;;;;;21.25;12.32;;;11.20;67.30;;;;;;4925237;29;20399;-93
2022/03/01 13:32:14;;;;;;;18.92;12.48;;;11.20;66.40;;;;;;4941246;29;20205;-94
2022/03/01 13:34:47;;;;;;;19.65;12.55;;;11.20;66.00;;;;;;4924967;29;20058;-93
2022/03/01 13:37:24;;;;;;;20.15;13.20;;;11.10;67.70;;;;;;4925332;29;20051;-93
2022/03/01 13:39:55;;;;;;;18.55;13.73;;;11.10;71.90;;;;;;4925772;29;20055;-93
2022/03/01 13:42:21;;;;;;;;;;;11.00;74.30;;;;;;4925475;29;20051;-94